createdAt,value
2023-02-19T00:00:05.127Z,0.00
2023-02-19T00:01:05.089Z,0.00
2023-02-19T00:02:08.162Z,0.00
2023-02-19T00:03:05.072Z,0.00
2023-02-19T00:04:05.055Z,0.00
2023-02-19T00:05:05.114Z,0.00
2023-02-19T00:06:05.031Z,0.00
2023-02-19T00:07:05.023Z,0.00
2023-02-19T00:08:05.008Z,0.00
2023-02-19T00:09:05.023Z,0.00
2023-02-19T00:10:05.037Z,0.00
2023-02-19T00:11:04.986Z,0.00
2023-02-19T00:12:04.989Z,0.00
2023-02-19T00:13:04.947Z,0.00
2023-02-19T00:14:04.970Z,0.00
2023-02-19T00:15:04.938Z,0.00
2023-02-19T00:16:05.077Z,0.00
2023-02-19T00:17:07.930Z,0.00
2023-02-19T00:18:04.941Z,0.00
2023-02-19T00:19:04.924Z,0.00
2023-02-19T00:20:04.926Z,0.00
2023-02-19T00:21:04.879Z,0.00
2023-02-19T00:22:04.921Z,0.00
2023-02-19T00:23:04.871Z,0.00
2023-02-19T00:24:04.842Z,0.00
2023-02-19T00:25:04.860Z,0.00
2023-02-19T00:26:17.137Z,0.00
2023-02-19T00:27:04.847Z,0.00
2023-02-19T00:28:04.831Z,0.00
2023-02-19T00:29:04.859Z,0.00
2023-02-19T00:30:04.849Z,0.00
2023-02-19T00:31:04.825Z,0.00
2023-02-19T00:32:07.828Z,0.00
2023-02-19T00:33:04.822Z,0.00
2023-02-19T00:34:04.970Z,0.00
2023-02-19T00:35:04.728Z,0.00
2023-02-19T00:36:04.808Z,0.00
2023-02-19T00:37:04.843Z,0.00
2023-02-19T00:38:04.728Z,0.00
2023-02-19T00:39:04.832Z,0.00
2023-02-19T00:40:04.897Z,0.00
2023-02-19T00:41:04.879Z,0.00
2023-02-19T00:42:04.728Z,0.00
2023-02-19T00:43:04.638Z,0.00
2023-02-19T00:44:04.801Z,0.00
2023-02-19T00:45:04.657Z,0.00
2023-02-19T00:46:04.685Z,0.00
2023-02-19T00:47:07.628Z,0.00
2023-02-19T00:48:04.610Z,0.00
2023-02-19T00:49:04.591Z,0.00
2023-02-19T00:50:04.583Z,0.00
2023-02-19T00:51:04.579Z,0.00
2023-02-19T00:52:04.691Z,0.00
2023-02-19T00:53:04.579Z,0.00
2023-02-19T00:54:04.560Z,0.00
2023-02-19T00:55:04.562Z,0.00
2023-02-19T00:56:04.520Z,0.00
2023-02-19T00:57:04.513Z,0.00
2023-02-19T00:58:04.521Z,0.00
2023-02-19T00:59:04.516Z,0.00
2023-02-19T01:00:04.503Z,0.00
2023-02-19T01:01:04.464Z,0.00
2023-02-19T01:02:07.450Z,0.00
2023-02-19T01:03:04.484Z,0.00
2023-02-19T01:04:06.573Z,0.00
2023-02-19T01:05:04.421Z,0.00
2023-02-19T01:06:04.441Z,0.00
2023-02-19T01:07:04.541Z,0.00
2023-02-19T01:08:04.399Z,0.00
2023-02-19T01:09:04.460Z,0.00
2023-02-19T01:10:04.392Z,0.00
2023-02-19T01:11:04.361Z,0.00
2023-02-19T01:12:04.405Z,0.00
2023-02-19T01:13:04.360Z,0.00
2023-02-19T01:14:04.449Z,0.00
2023-02-19T01:15:04.322Z,0.00
2023-02-19T01:16:04.354Z,0.00
2023-02-19T01:17:07.300Z,0.00
2023-02-19T01:18:04.292Z,0.00
2023-02-19T01:19:04.310Z,0.00
2023-02-19T01:20:04.283Z,0.00
2023-02-19T01:21:04.372Z,0.00
2023-02-19T01:22:04.306Z,0.00
2023-02-19T01:23:04.225Z,0.00
2023-02-19T01:24:04.226Z,0.00
2023-02-19T01:25:04.253Z,0.00
2023-02-19T01:26:04.228Z,0.00
2023-02-19T01:27:04.216Z,0.00
2023-02-19T01:28:04.215Z,0.00
2023-02-19T01:29:04.201Z,0.00
2023-02-19T01:30:04.220Z,0.00
2023-02-19T01:31:04.235Z,0.00
2023-02-19T01:32:07.256Z,0.00
2023-02-19T01:33:04.163Z,0.00
2023-02-19T01:34:04.131Z,0.00
2023-02-19T01:35:04.132Z,0.00
2023-02-19T01:36:04.124Z,0.00
2023-02-19T01:37:04.111Z,0.00
2023-02-19T01:38:04.077Z,0.00
2023-02-19T01:39:04.136Z,0.00
2023-02-19T01:40:04.074Z,0.00
2023-02-19T01:41:04.054Z,0.00
2023-02-19T01:42:04.063Z,0.00
2023-02-19T01:43:04.026Z,0.00
2023-02-19T01:44:04.071Z,0.00
2023-02-19T01:45:04.006Z,0.00
2023-02-19T01:46:04.016Z,0.00
2023-02-19T01:47:07.011Z,0.00
2023-02-19T01:48:04.012Z,0.00
2023-02-19T01:49:03.958Z,0.00
2023-02-19T01:50:03.983Z,0.00
2023-02-19T01:51:03.992Z,0.00
2023-02-19T01:52:03.950Z,0.00
2023-02-19T01:53:03.957Z,0.00
2023-02-19T01:54:03.943Z,0.00
2023-02-19T01:55:03.945Z,0.00
2023-02-19T01:56:03.937Z,0.00
2023-02-19T01:57:03.882Z,0.00
2023-02-19T01:58:03.867Z,0.00
2023-02-19T01:59:03.861Z,0.00
2023-02-19T02:00:03.849Z,0.00
2023-02-19T02:01:03.891Z,0.00
2023-02-19T02:02:06.898Z,0.00
2023-02-19T02:03:03.864Z,0.00
2023-02-19T02:04:03.835Z,0.00
2023-02-19T02:05:03.893Z,0.00
2023-02-19T02:06:03.788Z,0.00
2023-02-19T02:07:03.794Z,0.00
2023-02-19T02:08:03.759Z,0.00
2023-02-19T02:09:03.756Z,0.00
2023-02-19T02:10:03.774Z,0.00
2023-02-19T02:11:03.760Z,0.00
2023-02-19T02:12:03.742Z,0.00
2023-02-19T02:13:03.713Z,0.00
2023-02-19T02:14:03.707Z,0.00
2023-02-19T02:15:03.817Z,0.00
2023-02-19T02:16:03.763Z,0.00
2023-02-19T02:17:06.665Z,0.00
2023-02-19T02:18:03.757Z,0.00
2023-02-19T02:19:03.729Z,0.00
2023-02-19T02:20:03.709Z,0.00
2023-02-19T02:21:03.698Z,0.00
2023-02-19T02:22:03.674Z,0.00
2023-02-19T02:23:03.634Z,0.00
2023-02-19T02:24:03.617Z,0.00
2023-02-19T02:25:03.651Z,0.00
2023-02-19T02:26:03.698Z,0.00
2023-02-19T02:27:03.875Z,0.00
2023-02-19T02:28:03.582Z,0.00
2023-02-19T02:29:03.579Z,0.00
2023-02-19T02:30:03.593Z,0.00
2023-02-19T02:31:03.555Z,0.00
2023-02-19T02:32:06.744Z,0.00
2023-02-19T02:33:03.542Z,0.00
2023-02-19T02:34:03.540Z,0.00
2023-02-19T02:35:03.519Z,0.00
2023-02-19T02:36:03.484Z,0.00
2023-02-19T02:37:03.500Z,0.00
2023-02-19T02:38:03.489Z,0.00
2023-02-19T02:39:03.488Z,0.00
2023-02-19T02:40:03.430Z,0.00
2023-02-19T02:41:03.456Z,0.00
2023-02-19T02:42:03.412Z,0.00
2023-02-19T02:43:03.445Z,0.00
2023-02-19T02:44:03.398Z,0.00
2023-02-19T02:45:03.385Z,0.00
2023-02-19T02:46:03.466Z,0.00
2023-02-19T02:47:06.396Z,0.00
2023-02-19T02:48:03.391Z,0.00
2023-02-19T02:49:03.342Z,0.00
2023-02-19T02:51:03.337Z,0.00
2023-02-19T02:52:03.361Z,0.00
2023-02-19T02:53:03.334Z,0.00
2023-02-19T02:54:03.340Z,0.00
2023-02-19T02:56:03.263Z,0.00
2023-02-19T02:57:03.290Z,0.00
2023-02-19T02:58:03.246Z,0.00
2023-02-19T02:59:03.232Z,0.00
2023-02-19T03:00:03.254Z,0.00
2023-02-19T03:01:03.264Z,0.00
2023-02-19T03:02:06.323Z,0.00
2023-02-19T03:03:03.211Z,0.00
2023-02-19T03:04:03.214Z,0.00
2023-02-19T03:05:03.247Z,0.00
2023-02-19T03:06:03.193Z,0.00
2023-02-19T03:07:03.146Z,0.00
2023-02-19T03:08:03.158Z,0.00
2023-02-19T03:09:03.136Z,0.00
2023-02-19T03:10:03.145Z,0.00
2023-02-19T03:11:03.138Z,0.00
2023-02-19T03:12:03.156Z,0.00
2023-02-19T03:13:03.098Z,0.00
2023-02-19T03:14:03.106Z,0.00
2023-02-19T03:15:03.098Z,0.00
2023-02-19T03:16:03.097Z,0.00
2023-02-19T03:17:06.082Z,0.00
2023-02-19T03:18:03.082Z,0.00
2023-02-19T03:19:03.057Z,0.00
2023-02-19T03:20:03.016Z,0.00
2023-02-19T03:21:03.012Z,0.00
2023-02-19T03:22:03.022Z,0.00
2023-02-19T03:23:03.019Z,0.00
2023-02-19T03:24:03.019Z,0.00
2023-02-19T03:25:02.997Z,0.00
2023-02-19T03:26:02.992Z,0.00
2023-02-19T03:27:02.944Z,0.00
2023-02-19T03:28:02.969Z,0.00
2023-02-19T03:29:02.954Z,0.00
2023-02-19T03:30:02.982Z,0.00
2023-02-19T03:31:02.955Z,0.00
2023-02-19T03:32:05.934Z,0.00
2023-02-19T03:33:02.922Z,0.00
2023-02-19T03:34:02.913Z,0.00
2023-02-19T03:35:02.920Z,0.00
2023-02-19T03:36:02.877Z,0.00
2023-02-19T03:37:02.848Z,0.00
2023-02-19T03:38:02.860Z,0.00
2023-02-19T03:39:02.864Z,0.00
2023-02-19T03:40:02.815Z,0.00
2023-02-19T03:41:02.815Z,0.00
2023-02-19T03:42:02.829Z,0.00
2023-02-19T03:43:02.795Z,0.00
2023-02-19T03:44:02.766Z,0.00
2023-02-19T03:45:02.789Z,0.00
2023-02-19T03:46:07.925Z,0.00
2023-02-19T03:47:05.809Z,0.00
2023-02-19T03:48:02.775Z,0.00
2023-02-19T03:49:02.709Z,0.00
2023-02-19T03:50:02.709Z,0.00
2023-02-19T03:51:02.752Z,0.00
2023-02-19T03:52:02.687Z,0.00
2023-02-19T03:53:02.710Z,0.00
2023-02-19T03:54:02.663Z,0.00
2023-02-19T03:55:02.651Z,0.00
2023-02-19T03:56:02.734Z,0.00
2023-02-19T03:57:02.635Z,0.00
2023-02-19T03:58:02.646Z,0.00
2023-02-19T03:59:02.645Z,0.00
2023-02-19T04:00:02.626Z,0.00
2023-02-19T04:01:02.605Z,0.00
2023-02-19T04:02:05.683Z,0.00
2023-02-19T04:03:02.626Z,0.00
2023-02-19T04:04:02.566Z,0.00
2023-02-19T04:05:02.575Z,0.00
2023-02-19T04:06:02.546Z,0.00
2023-02-19T04:07:02.586Z,0.00
2023-02-19T04:08:02.564Z,0.00
2023-02-19T04:09:02.510Z,0.00
2023-02-19T04:10:02.528Z,0.00
2023-02-19T04:11:02.498Z,0.00
2023-02-19T04:12:02.517Z,0.00
2023-02-19T04:13:02.471Z,0.00
2023-02-19T04:14:02.457Z,0.00
2023-02-19T04:15:02.475Z,0.00
2023-02-19T04:16:02.443Z,0.00
2023-02-19T04:17:05.509Z,0.00
2023-02-19T04:18:02.438Z,0.00
2023-02-19T04:19:02.413Z,0.00
2023-02-19T04:20:02.423Z,0.00
2023-02-19T04:21:02.403Z,0.00
2023-02-19T04:22:02.400Z,0.00
2023-02-19T04:23:02.394Z,0.00
2023-02-19T04:24:02.359Z,0.00
2023-02-19T04:25:02.344Z,0.00
2023-02-19T04:26:09.397Z,0.00
2023-02-19T04:27:12.521Z,0.00
2023-02-19T04:28:02.321Z,0.00
2023-02-19T04:29:02.299Z,0.00
2023-02-19T04:30:02.339Z,0.00
2023-02-19T04:31:02.389Z,0.00
2023-02-19T04:32:05.324Z,0.00
2023-02-19T04:34:02.276Z,0.00
2023-02-19T04:35:02.247Z,0.00
2023-02-19T04:36:02.256Z,0.00
2023-02-19T04:37:02.268Z,0.00
2023-02-19T04:38:02.211Z,0.00
2023-02-19T04:39:02.219Z,0.00
2023-02-19T04:40:02.222Z,0.00
2023-02-19T04:41:02.210Z,0.00
2023-02-19T04:42:02.212Z,0.00
2023-02-19T04:43:02.196Z,0.00
2023-02-19T04:44:02.138Z,0.00
2023-02-19T04:45:02.140Z,0.00
2023-02-19T04:46:02.178Z,0.00
2023-02-19T04:47:05.136Z,0.00
2023-02-19T04:48:02.152Z,0.00
2023-02-19T04:49:02.093Z,0.00
2023-02-19T04:50:02.079Z,0.00
2023-02-19T04:52:02.058Z,0.00
2023-02-19T04:53:02.051Z,0.00
2023-02-19T04:54:02.039Z,0.00
2023-02-19T04:55:02.084Z,0.00
2023-02-19T04:56:02.029Z,0.00
2023-02-19T04:57:02.007Z,0.00
2023-02-19T04:58:02.026Z,0.00
2023-02-19T04:59:02.028Z,0.00
2023-02-19T05:00:02.017Z,0.00
2023-02-19T05:01:02.004Z,0.00
2023-02-19T05:02:04.960Z,0.00
2023-02-19T05:03:01.983Z,0.00
2023-02-19T05:04:01.980Z,0.00
2023-02-19T05:05:01.958Z,0.00
2023-02-19T05:06:01.952Z,0.00
2023-02-19T05:07:01.945Z,0.00
2023-02-19T05:08:01.900Z,0.00
2023-02-19T05:09:01.917Z,0.00
2023-02-19T05:10:01.914Z,0.00
2023-02-19T05:11:01.896Z,0.00
2023-02-19T05:12:01.880Z,0.00
2023-02-19T05:13:01.874Z,0.00
2023-02-19T05:14:01.863Z,0.00
2023-02-19T05:15:01.833Z,0.00
2023-02-19T05:16:01.873Z,0.00
2023-02-19T05:17:05.434Z,0.00
2023-02-19T05:18:01.848Z,0.00
2023-02-19T05:19:01.811Z,0.00
2023-02-19T05:20:01.800Z,0.00
2023-02-19T05:21:01.802Z,0.00
2023-02-19T05:22:01.807Z,0.00
2023-02-19T05:23:01.776Z,0.00
2023-02-19T05:24:01.755Z,0.00
2023-02-19T05:25:01.756Z,0.00
2023-02-19T05:26:01.717Z,0.00
2023-02-19T05:27:01.719Z,0.00
2023-02-19T05:28:01.717Z,0.00
2023-02-19T05:29:01.730Z,0.00
2023-02-19T05:30:01.798Z,0.00
2023-02-19T05:31:01.737Z,0.00
2023-02-19T05:32:04.671Z,0.00
2023-02-19T05:33:01.699Z,0.00
2023-02-19T05:34:01.657Z,0.00
2023-02-19T05:35:01.624Z,0.00
2023-02-19T05:36:01.628Z,0.00
2023-02-19T05:37:01.628Z,0.00
2023-02-19T05:38:01.614Z,0.00
2023-02-19T05:39:01.607Z,0.00
2023-02-19T05:40:01.600Z,0.00
2023-02-19T05:41:01.576Z,0.00
2023-02-19T05:42:01.616Z,0.00
2023-02-19T05:43:01.561Z,0.00
2023-02-19T05:44:01.553Z,0.00
2023-02-19T05:45:01.554Z,0.00
2023-02-19T05:46:01.552Z,0.00
2023-02-19T05:47:04.560Z,0.00
2023-02-19T05:48:01.495Z,0.00
2023-02-19T05:49:01.464Z,0.00
2023-02-19T05:50:01.490Z,0.00
2023-02-19T05:51:01.477Z,0.00
2023-02-19T05:52:01.480Z,0.00
2023-02-19T05:53:01.456Z,0.00
2023-02-19T05:54:01.440Z,0.00
2023-02-19T05:55:01.446Z,0.00
2023-02-19T05:56:01.398Z,0.00
2023-02-19T05:57:01.343Z,0.00
2023-02-19T05:58:01.328Z,0.00
2023-02-19T05:59:01.339Z,0.00
2023-02-19T06:00:01.380Z,0.00
2023-02-19T06:01:01.370Z,0.00
2023-02-19T06:02:04.349Z,0.00
2023-02-19T06:03:01.334Z,0.00
2023-02-19T06:04:01.310Z,0.00
2023-02-19T06:06:01.389Z,0.00
2023-02-19T06:07:01.240Z,0.00
2023-02-19T06:08:01.256Z,0.00
2023-02-19T06:09:01.216Z,0.00
2023-02-19T06:10:01.242Z,0.00
2023-02-19T06:11:01.202Z,0.00
2023-02-19T06:12:01.201Z,0.00
2023-02-19T06:13:01.168Z,0.00
2023-02-19T06:14:01.164Z,0.00
2023-02-19T06:15:01.178Z,0.00
2023-02-19T06:16:01.194Z,0.00
2023-02-19T06:17:04.153Z,0.00
2023-02-19T06:18:01.171Z,0.00
2023-02-19T06:19:01.350Z,0.00
2023-02-19T06:20:01.113Z,0.00
2023-02-19T06:21:01.134Z,0.00
2023-02-19T06:22:01.104Z,5.62
2023-02-19T06:23:01.064Z,5.62
2023-02-19T06:24:01.048Z,5.62
2023-02-19T06:25:01.068Z,5.62
2023-02-19T06:26:01.027Z,5.62
2023-02-19T06:27:01.055Z,5.62
2023-02-19T06:28:01.006Z,11.25
2023-02-19T06:29:01.017Z,11.25
2023-02-19T06:30:01.002Z,11.25
2023-02-19T06:31:01.183Z,11.25
2023-02-19T06:32:04.018Z,11.25
2023-02-19T06:33:00.976Z,11.25
2023-02-19T06:34:00.979Z,11.25
2023-02-19T06:35:00.965Z,11.25
2023-02-19T06:36:00.930Z,11.25
2023-02-19T06:37:00.966Z,11.25
2023-02-19T06:38:00.912Z,11.25
2023-02-19T06:39:00.914Z,11.25
2023-02-19T06:40:00.886Z,16.88
2023-02-19T06:41:00.943Z,16.88
2023-02-19T06:42:00.908Z,16.88
2023-02-19T06:43:00.862Z,22.50
2023-02-19T06:44:00.844Z,22.50
2023-02-19T06:45:00.877Z,22.50
2023-02-19T06:46:00.889Z,22.50
2023-02-19T06:47:03.816Z,28.12
2023-02-19T06:48:00.846Z,28.12
2023-02-19T06:49:00.831Z,28.12
2023-02-19T06:50:00.788Z,33.75
2023-02-19T06:51:00.780Z,33.75
2023-02-19T06:52:00.819Z,33.75
2023-02-19T06:53:00.757Z,39.38
2023-02-19T06:54:00.759Z,39.38
2023-02-19T06:55:00.758Z,45.00
2023-02-19T06:56:00.731Z,50.62
2023-02-19T06:57:00.801Z,56.25
2023-02-19T06:58:00.715Z,61.88
2023-02-19T06:59:00.750Z,73.12
2023-02-19T07:00:00.734Z,73.12
2023-02-19T07:01:00.700Z,78.75
2023-02-19T07:02:03.680Z,78.75
2023-02-19T07:03:00.701Z,73.12
2023-02-19T07:04:00.659Z,78.75
2023-02-19T07:05:00.730Z,84.38
2023-02-19T07:06:00.618Z,84.38
2023-02-19T07:07:00.906Z,84.38
2023-02-19T07:08:00.719Z,90.00
2023-02-19T07:09:00.606Z,90.00
2023-02-19T07:10:00.689Z,90.00
2023-02-19T07:11:00.622Z,84.38
2023-02-19T07:12:00.625Z,84.38
2023-02-19T07:13:00.656Z,84.38
2023-02-19T07:14:00.525Z,84.38
2023-02-19T07:15:00.550Z,90.00
2023-02-19T07:16:00.616Z,90.00
2023-02-19T07:17:03.500Z,95.62
2023-02-19T07:18:00.540Z,101.25
2023-02-19T07:19:00.518Z,101.25
2023-02-19T07:20:00.477Z,101.25
2023-02-19T07:21:00.493Z,95.62
2023-02-19T07:22:00.466Z,101.25
2023-02-19T07:23:00.461Z,112.50
2023-02-19T07:24:00.488Z,118.12
2023-02-19T07:25:00.417Z,135.00
2023-02-19T07:26:00.398Z,140.62
2023-02-19T07:27:00.422Z,135.00
2023-02-19T07:28:00.389Z,129.38
2023-02-19T07:29:00.397Z,118.12
2023-02-19T07:30:00.365Z,112.50
2023-02-19T07:31:00.390Z,112.50
2023-02-19T07:32:03.403Z,106.88
2023-02-19T07:33:00.363Z,101.25
2023-02-19T07:34:01.344Z,101.25
2023-02-19T07:35:00.339Z,101.25
2023-02-19T07:36:00.302Z,101.25
2023-02-19T07:37:00.306Z,112.50
2023-02-19T07:38:00.301Z,112.50
2023-02-19T07:39:00.278Z,112.50
2023-02-19T07:40:00.275Z,101.25
2023-02-19T07:41:00.252Z,101.25
2023-02-19T07:42:00.304Z,106.88
2023-02-19T07:43:00.260Z,123.75
2023-02-19T07:44:00.222Z,135.00
2023-02-19T07:45:00.703Z,135.00
2023-02-19T07:46:00.255Z,140.62
2023-02-19T07:47:03.254Z,135.00
2023-02-19T07:48:00.186Z,135.00
2023-02-19T07:49:00.168Z,146.25
2023-02-19T07:50:00.225Z,151.88
2023-02-19T07:51:00.147Z,157.50
2023-02-19T07:52:00.170Z,163.12
2023-02-19T07:53:00.145Z,163.12
2023-02-19T07:54:00.147Z,146.25
2023-02-19T07:55:00.144Z,151.88
2023-02-19T07:56:00.108Z,157.50
2023-02-19T07:57:00.144Z,163.12
2023-02-19T07:58:00.116Z,151.88
2023-02-19T07:59:00.099Z,151.88
2023-02-19T08:00:00.103Z,157.50
2023-02-19T08:01:00.084Z,157.50
2023-02-19T08:02:03.082Z,163.12
2023-02-19T08:03:00.187Z,163.12
2023-02-19T08:04:00.010Z,174.38
2023-02-19T08:05:00.032Z,191.25
2023-02-19T08:06:00.035Z,191.25
2023-02-19T08:06:59.978Z,191.25
2023-02-19T08:07:59.967Z,202.50
2023-02-19T08:08:59.960Z,202.50
2023-02-19T08:10:00.002Z,196.88
2023-02-19T08:10:59.979Z,202.50
2023-02-19T08:11:59.958Z,202.50
2023-02-19T08:12:59.981Z,202.50
2023-02-19T08:13:59.933Z,196.88
2023-02-19T08:14:59.913Z,185.62
2023-02-19T08:16:16.041Z,191.25
2023-02-19T08:17:03.939Z,191.25
2023-02-19T08:17:59.874Z,208.12
2023-02-19T08:18:59.895Z,213.75
2023-02-19T08:19:59.872Z,208.12
2023-02-19T08:20:59.873Z,191.25
2023-02-19T08:21:59.849Z,191.25
2023-02-19T08:22:59.842Z,202.50
2023-02-19T08:23:59.805Z,213.75
2023-02-19T08:25:59.783Z,230.62
2023-02-19T08:26:59.805Z,264.38
2023-02-19T08:27:59.825Z,258.75
2023-02-19T08:28:59.755Z,264.38
2023-02-19T08:29:59.848Z,298.12
2023-02-19T08:30:59.773Z,298.12
2023-02-19T08:32:02.881Z,275.62
2023-02-19T08:33:01.855Z,298.12
2023-02-19T08:33:59.737Z,281.25
2023-02-19T08:34:59.693Z,298.12
2023-02-19T08:35:59.683Z,331.88
2023-02-19T08:36:59.671Z,326.25
2023-02-19T08:37:59.671Z,309.38
2023-02-19T08:38:59.646Z,331.88
2023-02-19T08:39:59.667Z,331.88
2023-02-19T08:40:59.848Z,337.50
2023-02-19T08:41:59.618Z,348.75
2023-02-19T08:42:59.597Z,331.88
2023-02-19T08:43:59.620Z,315.00
2023-02-19T08:44:59.608Z,331.88
2023-02-19T08:45:59.612Z,343.12
2023-02-19T08:47:02.618Z,343.12
2023-02-19T08:47:59.566Z,371.25
2023-02-19T08:48:59.580Z,416.25
2023-02-19T08:49:59.567Z,393.75
2023-02-19T08:50:59.549Z,337.50
2023-02-19T08:51:59.548Z,320.62
2023-02-19T08:52:59.518Z,337.50
2023-02-19T08:53:59.497Z,382.50
2023-02-19T08:54:59.523Z,466.88
2023-02-19T08:55:59.491Z,410.62
2023-02-19T08:56:59.559Z,393.75
2023-02-19T08:57:59.452Z,399.38
2023-02-19T08:58:59.466Z,360.00
2023-02-19T08:59:59.425Z,371.25
2023-02-19T09:00:59.506Z,371.25
2023-02-19T09:02:02.403Z,416.25
2023-02-19T09:02:59.442Z,489.38
2023-02-19T09:03:59.432Z,483.75
2023-02-19T09:04:59.471Z,450.00
2023-02-19T09:05:59.389Z,427.50
2023-02-19T09:06:59.348Z,405.00
2023-02-19T09:07:59.351Z,399.38
2023-02-19T09:08:59.369Z,405.00
2023-02-19T09:09:59.337Z,416.25
2023-02-19T09:10:59.309Z,388.12
2023-02-19T09:11:59.433Z,360.00
2023-02-19T09:12:59.313Z,348.75
2023-02-19T09:13:59.283Z,388.12
2023-02-19T09:14:59.300Z,388.12
2023-02-19T09:15:59.338Z,405.00
2023-02-19T09:17:02.278Z,450.00
2023-02-19T09:17:59.264Z,478.12
2023-02-19T09:18:59.399Z,528.75
2023-02-19T09:19:59.247Z,562.50
2023-02-19T09:20:59.207Z,551.25
2023-02-19T09:21:59.200Z,534.38
2023-02-19T09:22:59.200Z,483.75
2023-02-19T09:23:59.334Z,405.00
2023-02-19T09:24:59.165Z,388.12
2023-02-19T09:25:59.365Z,433.12
2023-02-19T09:26:59.180Z,506.25
2023-02-19T09:28:00.424Z,562.50
2023-02-19T09:29:00.156Z,540.00
2023-02-19T09:29:59.330Z,506.25
2023-02-19T09:30:59.186Z,421.88
2023-02-19T09:32:02.232Z,371.25
2023-02-19T09:32:59.130Z,410.62
2023-02-19T09:33:59.148Z,461.25
2023-02-19T09:34:59.272Z,450.00
2023-02-19T09:35:59.077Z,438.75
2023-02-19T09:36:59.058Z,410.62
2023-02-19T09:37:59.058Z,405.00
2023-02-19T09:38:59.070Z,405.00
2023-02-19T09:39:59.058Z,405.00
2023-02-19T09:40:59.049Z,393.75
2023-02-19T09:42:01.639Z,438.75
2023-02-19T09:43:00.923Z,416.25
2023-02-19T09:43:59.001Z,421.88
2023-02-19T09:44:58.989Z,427.50
2023-02-19T09:45:58.955Z,427.50
2023-02-19T09:47:02.229Z,438.75
2023-02-19T09:47:58.954Z,455.62
2023-02-19T09:48:59.023Z,506.25
2023-02-19T09:49:58.938Z,585.00
2023-02-19T09:50:58.908Z,573.75
2023-02-19T09:51:58.986Z,562.50
2023-02-19T09:52:58.872Z,618.75
2023-02-19T09:53:58.876Z,736.88
2023-02-19T09:54:58.855Z,860.62
2023-02-19T09:55:58.842Z,877.50
2023-02-19T09:56:58.869Z,826.88
2023-02-19T09:58:58.830Z,826.88
2023-02-19T09:59:58.802Z,810.00
2023-02-19T10:00:58.795Z,793.12
2023-02-19T10:02:01.806Z,798.75
2023-02-19T10:02:58.784Z,826.88
2023-02-19T10:03:59.067Z,905.62
2023-02-19T10:04:58.783Z,1153.12
2023-02-19T10:05:58.752Z,1108.12
2023-02-19T10:06:58.723Z,1777.50
2023-02-19T10:07:58.741Z,1102.50
2023-02-19T10:08:58.721Z,1158.75
2023-02-19T10:09:58.722Z,1417.50
2023-02-19T10:10:59.666Z,1845.00
2023-02-19T10:11:58.669Z,2086.88
2023-02-19T10:12:58.693Z,1125.00
2023-02-19T10:13:58.674Z,1130.62
2023-02-19T10:14:58.678Z,1355.62
2023-02-19T10:15:58.687Z,1141.88
2023-02-19T10:17:01.682Z,1321.88
2023-02-19T10:17:58.659Z,1192.50
2023-02-19T10:18:58.625Z,1220.62
2023-02-19T10:19:58.615Z,1468.12
2023-02-19T10:20:58.588Z,1181.25
2023-02-19T10:21:58.564Z,1383.75
2023-02-19T10:22:58.574Z,1068.75
2023-02-19T10:23:58.586Z,1057.50
2023-02-19T10:24:58.599Z,1175.62
2023-02-19T10:25:58.556Z,2655.00
2023-02-19T10:26:58.539Z,1186.88
2023-02-19T10:27:58.500Z,1980.00
2023-02-19T10:28:58.510Z,1153.12
2023-02-19T10:29:58.568Z,1175.62
2023-02-19T10:30:58.528Z,1417.50
2023-02-19T10:32:01.549Z,1265.62
2023-02-19T10:32:58.508Z,1096.88
2023-02-19T10:34:58.529Z,2334.38
2023-02-19T10:35:58.495Z,1867.50
2023-02-19T10:36:58.429Z,2351.25
2023-02-19T10:37:58.465Z,2525.62
2023-02-19T10:38:58.415Z,2801.25
2023-02-19T10:39:58.439Z,2784.38
2023-02-19T10:40:58.472Z,2778.75
2023-02-19T10:41:58.546Z,2638.12
2023-02-19T10:42:58.450Z,2891.25
2023-02-19T10:43:58.462Z,2216.25
2023-02-19T10:44:58.516Z,2632.50
2023-02-19T10:45:58.368Z,2570.62
2023-02-19T10:47:01.305Z,2458.12
2023-02-19T10:47:58.394Z,2300.62
2023-02-19T10:48:58.325Z,2171.25
2023-02-19T10:49:58.273Z,2131.88
2023-02-19T10:50:58.285Z,2221.88
2023-02-19T10:51:58.283Z,2266.88
2023-02-19T10:52:58.264Z,1428.75
2023-02-19T10:53:58.256Z,2182.50
2023-02-19T10:54:58.245Z,2143.12
2023-02-19T10:55:58.236Z,2120.62
2023-02-19T10:56:58.227Z,1288.12
2023-02-19T10:57:58.220Z,1096.88
2023-02-19T10:58:58.166Z,1029.38
2023-02-19T10:59:58.163Z,1175.62
2023-02-19T11:00:58.157Z,2070.00
2023-02-19T11:02:01.285Z,1305.00
2023-02-19T11:02:58.246Z,1119.38
2023-02-19T11:03:58.115Z,1316.25
2023-02-19T11:04:58.109Z,2475.00
2023-02-19T11:05:58.094Z,1040.62
2023-02-19T11:06:58.118Z,1108.12
2023-02-19T11:07:58.306Z,1057.50
2023-02-19T11:08:58.090Z,1265.62
2023-02-19T11:09:58.061Z,1147.50
2023-02-19T11:10:58.056Z,1063.12
2023-02-19T11:11:58.081Z,1012.50
2023-02-19T11:12:58.069Z,804.38
2023-02-19T11:13:58.038Z,658.12
2023-02-19T11:14:58.010Z,697.50
2023-02-19T11:15:58.025Z,787.50
2023-02-19T11:17:00.982Z,776.25
2023-02-19T11:17:58.018Z,793.12
2023-02-19T11:18:57.960Z,669.38
2023-02-19T11:19:57.942Z,736.88
2023-02-19T11:20:57.966Z,708.75
2023-02-19T11:21:57.959Z,635.62
2023-02-19T11:22:57.942Z,551.25
2023-02-19T11:23:57.933Z,596.25
2023-02-19T11:24:59.526Z,708.75
2023-02-19T11:25:57.900Z,753.75
2023-02-19T11:26:57.901Z,714.38
2023-02-19T11:27:57.878Z,697.50
2023-02-19T11:28:57.898Z,759.38
2023-02-19T11:29:57.878Z,838.12
2023-02-19T11:30:57.901Z,928.12
2023-02-19T11:32:00.981Z,1102.50
2023-02-19T11:32:57.844Z,1040.62
2023-02-19T11:33:57.819Z,995.62
2023-02-19T11:34:57.793Z,877.50
2023-02-19T11:35:58.739Z,821.25
2023-02-19T11:36:57.997Z,793.12
2023-02-19T11:37:57.789Z,686.25
2023-02-19T11:38:57.754Z,646.88
2023-02-19T11:39:57.767Z,686.25
2023-02-19T11:40:57.731Z,675.00
2023-02-19T11:41:57.713Z,596.25
2023-02-19T11:42:57.722Z,534.38
2023-02-19T11:43:57.689Z,534.38
2023-02-19T11:44:57.693Z,596.25
2023-02-19T11:45:57.704Z,601.88
2023-02-19T11:47:00.704Z,545.62
2023-02-19T11:47:57.705Z,517.50
2023-02-19T11:48:57.660Z,495.00
2023-02-19T11:49:57.664Z,500.62
2023-02-19T11:50:57.655Z,500.62
2023-02-19T11:51:57.672Z,500.62
2023-02-19T11:52:57.635Z,472.50
2023-02-19T11:53:57.618Z,450.00
2023-02-19T11:54:57.581Z,472.50
2023-02-19T11:55:57.592Z,506.25
2023-02-19T11:56:57.555Z,528.75
2023-02-19T11:57:57.644Z,511.88
2023-02-19T11:59:00.667Z,461.25
2023-02-19T11:59:57.576Z,421.88
2023-02-19T12:00:57.528Z,444.38
2023-02-19T12:02:00.597Z,450.00
2023-02-19T12:02:57.602Z,410.62
2023-02-19T12:03:57.482Z,438.75
2023-02-19T12:04:57.547Z,472.50
2023-02-19T12:05:57.486Z,371.25
2023-02-19T12:06:57.484Z,343.12
2023-02-19T12:07:57.465Z,303.75
2023-02-19T12:08:57.434Z,315.00
2023-02-19T12:09:57.421Z,337.50
2023-02-19T12:10:57.437Z,343.12
2023-02-19T12:11:57.400Z,354.38
2023-02-19T12:12:57.394Z,388.12
2023-02-19T12:13:57.430Z,455.62
2023-02-19T12:14:57.383Z,495.00
2023-02-19T12:15:57.394Z,534.38
2023-02-19T12:17:00.353Z,590.62
2023-02-19T12:17:57.378Z,669.38
2023-02-19T12:18:57.370Z,686.25
2023-02-19T12:19:57.307Z,708.75
2023-02-19T12:20:57.306Z,725.62
2023-02-19T12:21:57.316Z,753.75
2023-02-19T12:22:57.269Z,821.25
2023-02-19T12:23:57.274Z,821.25
2023-02-19T12:24:57.289Z,720.00
2023-02-19T12:25:57.275Z,596.25
2023-02-19T12:26:57.268Z,511.88
2023-02-19T12:27:57.267Z,466.88
2023-02-19T12:28:57.245Z,416.25
2023-02-19T12:29:57.340Z,388.12
2023-02-19T12:30:57.209Z,360.00
2023-02-19T12:32:00.340Z,348.75
2023-02-19T12:32:57.185Z,320.62
2023-02-19T12:33:57.189Z,326.25
2023-02-19T12:34:57.149Z,331.88
2023-02-19T12:35:57.139Z,360.00
2023-02-19T12:36:57.159Z,410.62
2023-02-19T12:37:57.153Z,455.62
2023-02-19T12:38:57.112Z,444.38
2023-02-19T12:39:57.103Z,427.50
2023-02-19T12:40:57.199Z,360.00
2023-02-19T12:41:57.501Z,326.25
2023-02-19T12:42:57.105Z,320.62
2023-02-19T12:43:57.057Z,326.25
2023-02-19T12:44:57.045Z,326.25
2023-02-19T12:45:57.085Z,298.12
2023-02-19T12:47:00.033Z,275.62
2023-02-19T12:47:57.955Z,281.25
2023-02-19T12:48:57.033Z,275.62
2023-02-19T12:49:57.023Z,264.38
2023-02-19T12:50:56.975Z,275.62
2023-02-19T12:51:56.998Z,275.62
2023-02-19T12:52:57.029Z,264.38
2023-02-19T12:53:56.961Z,275.62
2023-02-19T12:54:56.968Z,264.38
2023-02-19T12:55:56.948Z,253.12
2023-02-19T12:56:56.980Z,247.50
2023-02-19T12:57:56.954Z,253.12
2023-02-19T12:58:56.903Z,275.62